sensor_id;sensor_type;location;lat;lon;timestamp;temperature;humidity
51595;DHT22;37677;53.254;6.594;2022-12-18T00:01:17;-2.30;18.50
51595;DHT22;37677;53.254;6.594;2022-12-18T00:03:43;-2.50;18.90
51595;DHT22;37677;53.254;6.594;2022-12-18T00:06:09;-2.40;10.50
51595;DHT22;37677;53.254;6.594;2022-12-18T00:08:35;-0.10;11.00
51595;DHT22;37677;53.254;6.594;2022-12-18T00:11:05;-2.60;19.40
51595;DHT22;37677;53.254;6.594;2022-12-18T00:13:31;-2.40;19.50
51595;DHT22;37677;53.254;6.594;2022-12-18T00:16:02;-2.60;20.00
51595;DHT22;37677;53.254;6.594;2022-12-18T00:18:28;-2.40;20.70
51595;DHT22;37677;53.254;6.594;2022-12-18T00:20:54;-2.30;12.20
51595;DHT22;37677;53.254;6.594;2022-12-18T00:23:19;-2.70;20.20
51595;DHT22;37677;53.254;6.594;2022-12-18T00:25:45;-2.30;11.10
51595;DHT22;37677;53.254;6.594;2022-12-18T00:28:11;-2.50;10.30
51595;DHT22;37677;53.254;6.594;2022-12-18T00:30:37;-2.10;10.40
51595;DHT22;37677;53.254;6.594;2022-12-18T00:33:03;-2.60;19.50
51595;DHT22;37677;53.254;6.594;2022-12-18T00:35:28;-2.50;18.70
51595;DHT22;37677;53.254;6.594;2022-12-18T00:37:54;-2.50;9.80
51595;DHT22;37677;53.254;6.594;2022-12-18T00:42:46;-2.80;19.40
51595;DHT22;37677;53.254;6.594;2022-12-18T00:45:28;-2.30;8.70
51595;DHT22;37677;53.254;6.594;2022-12-18T00:47:55;-2.70;9.20
51595;DHT22;37677;53.254;6.594;2022-12-18T00:50:21;-2.70;20.00
51595;DHT22;37677;53.254;6.594;2022-12-18T00:52:47;-2.40;19.50
51595;DHT22;37677;53.254;6.594;2022-12-18T00:55:13;-2.60;18.00
51595;DHT22;37677;53.254;6.594;2022-12-18T00:57:40;-2.70;16.90
51595;DHT22;37677;53.254;6.594;2022-12-18T01:00:08;-2.20;17.40
51595;DHT22;37677;53.254;6.594;2022-12-18T01:02:35;-3.00;16.80
51595;DHT22;37677;53.254;6.594;2022-12-18T01:05:00;-2.90;17.30
51595;DHT22;37677;53.254;6.594;2022-12-18T01:07:26;-3.00;18.50
51595;DHT22;37677;53.254;6.594;2022-12-18T01:09:52;-3.10;18.80
51595;DHT22;37677;53.254;6.594;2022-12-18T01:12:17;-2.60;9.40
51595;DHT22;37677;53.254;6.594;2022-12-18T01:14:43;-1.20;10.10
51595;DHT22;37677;53.254;6.594;2022-12-18T01:17:09;-3.10;20.30
51595;DHT22;37677;53.254;6.594;2022-12-18T01:19:35;-2.20;11.80
51595;DHT22;37677;53.254;6.594;2022-12-18T01:22:00;-2.90;19.60
51595;DHT22;37677;53.254;6.594;2022-12-18T01:24:26;-3.00;19.50
51595;DHT22;37677;53.254;6.594;2022-12-18T01:26:52;-2.70;10.20
51595;DHT22;37677;53.254;6.594;2022-12-18T01:29:17;-2.60;18.70
51595;DHT22;37677;53.254;6.594;2022-12-18T01:31:43;-3.40;18.10
51595;DHT22;37677;53.254;6.594;2022-12-18T01:34:09;-3.10;18.50
51595;DHT22;37677;53.254;6.594;2022-12-18T01:36:37;-2.90;18.20
51595;DHT22;37677;53.254;6.594;2022-12-18T01:39:07;-3.10;17.90
51595;DHT22;37677;53.254;6.594;2022-12-18T01:41:35;-3.00;20.10
51595;DHT22;37677;53.254;6.594;2022-12-18T01:50:18;-2.70;19.20
51595;DHT22;37677;53.254;6.594;2022-12-18T01:53:03;-3.30;18.60
51595;DHT22;37677;53.254;6.594;2022-12-18T01:55:35;-3.30;20.70
51595;DHT22;37677;53.254;6.594;2022-12-18T01:58:02;-2.90;18.00
51595;DHT22;37677;53.254;6.594;2022-12-18T02:00:29;-3.00;9.50
51595;DHT22;37677;53.254;6.594;2022-12-18T02:02:55;-2.90;8.70
51595;DHT22;37677;53.254;6.594;2022-12-18T02:13:46;-3.50;15.50
51595;DHT22;37677;53.254;6.594;2022-12-18T02:16:21;-3.10;4.50
51595;DHT22;37677;53.254;6.594;2022-12-18T02:18:53;-3.00;15.30
51595;DHT22;37677;53.254;6.594;2022-12-18T02:26:53;-3.30;15.20
51595;DHT22;37677;53.254;6.594;2022-12-18T02:29:28;-3.40;14.40
51595;DHT22;37677;53.254;6.594;2022-12-18T02:32:00;-3.30;15.10
51595;DHT22;37677;53.254;6.594;2022-12-18T02:34:31;-3.30;15.10
51595;DHT22;37677;53.254;6.594;2022-12-18T02:36:59;-3.40;6.00
51595;DHT22;37677;53.254;6.594;2022-12-18T02:39:27;-3.90;15.00
51595;DHT22;37677;53.254;6.594;2022-12-18T02:41:54;-3.60;15.00
51595;DHT22;37677;53.254;6.594;2022-12-18T02:46:50;-3.40;14.80
51595;DHT22;37677;53.254;6.594;2022-12-18T02:49:41;-3.40;6.30
51595;DHT22;37677;53.254;6.594;2022-12-18T02:56:14;-3.40;15.80
51595;DHT22;37677;53.254;6.594;2022-12-18T03:04:02;-3.70;4.70
51595;DHT22;37677;53.254;6.594;2022-12-18T03:06:37;-4.00;16.20
51595;DHT22;37677;53.254;6.594;2022-12-18T03:09:09;-3.70;15.50
51595;DHT22;37677;53.254;6.594;2022-12-18T03:11:40;-3.90;15.90
51595;DHT22;37677;53.254;6.594;2022-12-18T03:14:26;-3.50;15.90
51595;DHT22;37677;53.254;6.594;2022-12-18T03:16:58;-4.00;15.30
51595;DHT22;37677;53.254;6.594;2022-12-18T03:19:28;-3.80;15.90
51595;DHT22;37677;53.254;6.594;2022-12-18T03:21:57;-3.80;17.70
51595;DHT22;37677;53.254;6.594;2022-12-18T03:24:25;-4.10;18.10
51595;DHT22;37677;53.254;6.594;2022-12-18T03:26:54;-4.20;18.10
51595;DHT22;37677;53.254;6.594;2022-12-18T03:29:25;-4.10;18.10
51595;DHT22;37677;53.254;6.594;2022-12-18T03:32:00;-3.80;17.40
51595;DHT22;37677;53.254;6.594;2022-12-18T03:34:30;-4.00;17.10
51595;DHT22;37677;53.254;6.594;2022-12-18T03:36:57;-3.70;17.20
51595;DHT22;37677;53.254;6.594;2022-12-18T03:39:24;-4.00;16.40
51595;DHT22;37677;53.254;6.594;2022-12-18T03:42:08;-3.90;16.00
51595;DHT22;37677;53.254;6.594;2022-12-18T03:44:43;-3.90;16.20
51595;DHT22;37677;53.254;6.594;2022-12-18T03:47:26;-4.10;16.10
51595;DHT22;37677;53.254;6.594;2022-12-18T03:50:45;-4.00;5.20
51595;DHT22;37677;53.254;6.594;2022-12-18T03:55:48;-3.90;6.90
51595;DHT22;37677;53.254;6.594;2022-12-18T03:58:18;-4.00;7.90
51595;DHT22;37677;53.254;6.594;2022-12-18T04:00:45;-3.90;7.80
51595;DHT22;37677;53.254;6.594;2022-12-18T04:03:12;-3.80;8.80
51595;DHT22;37677;53.254;6.594;2022-12-18T04:05:40;-4.10;16.90
51595;DHT22;37677;53.254;6.594;2022-12-18T04:08:07;-4.00;16.90
51595;DHT22;37677;53.254;6.594;2022-12-18T04:10:36;-3.90;7.80
51595;DHT22;37677;53.254;6.594;2022-12-18T04:15:28;-4.00;5.90
51595;DHT22;37677;53.254;6.594;2022-12-18T04:17:54;-4.10;16.30
51595;DHT22;37677;53.254;6.594;2022-12-18T04:20:20;-3.80;16.20
51595;DHT22;37677;53.254;6.594;2022-12-18T04:22:46;-3.80;7.50
51595;DHT22;37677;53.254;6.594;2022-12-18T04:25:12;-4.00;7.10
51595;DHT22;37677;53.254;6.594;2022-12-18T04:27:37;-1.60;7.60
51595;DHT22;37677;53.254;6.594;2022-12-18T04:30:03;-4.40;15.50
51595;DHT22;37677;53.254;6.594;2022-12-18T04:32:29;-3.90;17.10
51595;DHT22;37677;53.254;6.594;2022-12-18T04:34:55;-4.00;7.60
51595;DHT22;37677;53.254;6.594;2022-12-18T04:37:20;-4.50;14.60
51595;DHT22;37677;53.254;6.594;2022-12-18T04:39:46;-4.10;14.70
51595;DHT22;37677;53.254;6.594;2022-12-18T04:42:12;-3.90;13.80
51595;DHT22;37677;53.254;6.594;2022-12-18T04:44:37;-3.90;13.70
51595;DHT22;37677;53.254;6.594;2022-12-18T04:47:03;-3.20;5.10
51595;DHT22;37677;53.254;6.594;2022-12-18T04:49:29;-4.20;13.30
51595;DHT22;37677;53.254;6.594;2022-12-18T04:51:54;-3.80;13.30
51595;DHT22;37677;53.254;6.594;2022-12-18T04:54:20;-4.00;4.30
51595;DHT22;37677;53.254;6.594;2022-12-18T04:56:46;-4.10;13.10
51595;DHT22;37677;53.254;6.594;2022-12-18T04:59:12;-3.90;12.60
51595;DHT22;37677;53.254;6.594;2022-12-18T05:01:37;-4.00;3.70
51595;DHT22;37677;53.254;6.594;2022-12-18T05:04:03;-3.80;12.10
51595;DHT22;37677;53.254;6.594;2022-12-18T05:06:29;-4.10;11.70
51595;DHT22;37677;53.254;6.594;2022-12-18T05:08:55;-4.00;11.70
51595;DHT22;37677;53.254;6.594;2022-12-18T05:11:21;-3.80;11.40
51595;DHT22;37677;53.254;6.594;2022-12-18T05:13:46;-4.30;10.60
51595;DHT22;37677;53.254;6.594;2022-12-18T05:16:13;-4.10;10.50
51595;DHT22;37677;53.254;6.594;2022-12-18T05:18:39;-4.20;9.80
51595;DHT22;37677;53.254;6.594;2022-12-18T05:21:05;-4.00;9.80
51595;DHT22;37677;53.254;6.594;2022-12-18T05:23:31;-4.10;1.10
51595;DHT22;37677;53.254;6.594;2022-12-18T05:25:58;-3.90;8.90
51595;DHT22;37677;53.254;6.594;2022-12-18T05:28:26;-4.10;8.60
51595;DHT22;37677;53.254;6.594;2022-12-18T05:30:54;-4.20;8.40
51595;DHT22;37677;53.254;6.594;2022-12-18T05:33:21;-4.40;1.00
51595;DHT22;37677;53.254;6.594;2022-12-18T05:35:52;-4.40;8.10
51595;DHT22;37677;53.254;6.594;2022-12-18T05:38:22;-4.30;7.60
51595;DHT22;37677;53.254;6.594;2022-12-18T05:40:49;-2.90;1.00
51595;DHT22;37677;53.254;6.594;2022-12-18T05:43:15;-4.20;6.80
51595;DHT22;37677;53.254;6.594;2022-12-18T05:45:42;-4.50;6.30
51595;DHT22;37677;53.254;6.594;2022-12-18T05:48:08;-3.80;1.00
51595;DHT22;37677;53.254;6.594;2022-12-18T05:50:38;-4.10;1.00
51595;DHT22;37677;53.254;6.594;2022-12-18T05:53:05;-4.00;4.90
51595;DHT22;37677;53.254;6.594;2022-12-18T05:55:39;-4.10;4.00
51595;DHT22;37677;53.254;6.594;2022-12-18T05:58:06;-4.20;1.00
51595;DHT22;37677;53.254;6.594;2022-12-18T06:00:34;-4.40;1.00
51595;DHT22;37677;53.254;6.594;2022-12-18T06:03:01;-4.20;1.40
51595;DHT22;37677;53.254;6.594;2022-12-18T06:05:27;-2.90;1.00
51595;DHT22;37677;53.254;6.594;2022-12-18T06:07:53;-4.30;1.00
51595;DHT22;37677;53.254;6.594;2022-12-18T06:10:19;-2.90;1.00
51595;DHT22;37677;53.254;6.594;2022-12-18T06:12:45;-4.30;1.00
51595;DHT22;37677;53.254;6.594;2022-12-18T06:15:11;-2.80;1.00
51595;DHT22;37677;53.254;6.594;2022-12-18T06:17:36;-4.20;1.00
51595;DHT22;37677;53.254;6.594;2022-12-18T06:20:03;-4.40;1.00
51595;DHT22;37677;53.254;6.594;2022-12-18T06:22:31;-4.30;1.00
51595;DHT22;37677;53.254;6.594;2022-12-18T06:24:57;-4.20;1.00
51595;DHT22;37677;53.254;6.594;2022-12-18T06:27:23;-4.20;1.00
51595;DHT22;37677;53.254;6.594;2022-12-18T06:29:48;-4.30;1.00
51595;DHT22;37677;53.254;6.594;2022-12-18T06:32:15;-4.30;1.00
51595;DHT22;37677;53.254;6.594;2022-12-18T06:34:41;-4.20;1.00
51595;DHT22;37677;53.254;6.594;2022-12-18T06:37:07;-4.10;1.00
51595;DHT22;37677;53.254;6.594;2022-12-18T06:39:32;-4.00;1.00
51595;DHT22;37677;53.254;6.594;2022-12-18T06:41:58;-4.40;1.00
51595;DHT22;37677;53.254;6.594;2022-12-18T06:44:23;-4.40;1.00
51595;DHT22;37677;53.254;6.594;2022-12-18T06:46:49;-3.60;1.00
51595;DHT22;37677;53.254;6.594;2022-12-18T06:49:15;-4.50;1.00
51595;DHT22;37677;53.254;6.594;2022-12-18T06:51:41;-4.50;1.00
51595;DHT22;37677;53.254;6.594;2022-12-18T06:54:08;-4.50;1.00
51595;DHT22;37677;53.254;6.594;2022-12-18T06:56:33;-4.60;1.00
51595;DHT22;37677;53.254;6.594;2022-12-18T06:58:59;-4.70;1.00
51595;DHT22;37677;53.254;6.594;2022-12-18T07:01:25;-4.40;1.00
51595;DHT22;37677;53.254;6.594;2022-12-18T07:03:55;-4.50;1.00
51595;DHT22;37677;53.254;6.594;2022-12-18T07:06:23;-4.50;1.00
51595;DHT22;37677;53.254;6.594;2022-12-18T07:08:51;-4.70;1.00
51595;DHT22;37677;53.254;6.594;2022-12-18T07:11:17;-4.70;1.00
51595;DHT22;37677;53.254;6.594;2022-12-18T07:13:44;-4.30;1.00
51595;DHT22;37677;53.254;6.594;2022-12-18T07:16:15;-4.50;1.00
51595;DHT22;37677;53.254;6.594;2022-12-18T07:18:41;-4.20;1.60
51595;DHT22;37677;53.254;6.594;2022-12-18T07:21:10;-5.40;1.40
51595;DHT22;37677;53.254;6.594;2022-12-18T07:23:37;-4.60;2.90
51595;DHT22;37677;53.254;6.594;2022-12-18T07:26:11;-4.70;2.80
51595;DHT22;37677;53.254;6.594;2022-12-18T07:28:38;-4.70;3.90
51595;DHT22;37677;53.254;6.594;2022-12-18T07:31:12;-4.60;3.90
51595;DHT22;37677;53.254;6.594;2022-12-18T07:33:39;-4.70;1.60
51595;DHT22;37677;53.254;6.594;2022-12-18T07:36:06;-4.70;3.60
51595;DHT22;37677;53.254;6.594;2022-12-18T07:38:33;-4.60;3.50
51595;DHT22;37677;53.254;6.594;2022-12-18T07:41:11;-4.00;3.70
51595;DHT22;37677;53.254;6.594;2022-12-18T07:43:38;-4.50;3.20
51595;DHT22;37677;53.254;6.594;2022-12-18T07:46:04;-4.60;3.50
51595;DHT22;37677;53.254;6.594;2022-12-18T07:48:30;-4.60;2.70
51595;DHT22;37677;53.254;6.594;2022-12-18T07:51:00;-4.40;2.50
51595;DHT22;37677;53.254;6.594;2022-12-18T07:53:26;-4.80;1.90
51595;DHT22;37677;53.254;6.594;2022-12-18T07:55:57;-4.70;1.60
51595;DHT22;37677;53.254;6.594;2022-12-18T07:58:23;-4.10;1.70
51595;DHT22;37677;53.254;6.594;2022-12-18T08:00:49;-4.60;1.00
51595;DHT22;37677;53.254;6.594;2022-12-18T08:03:14;-4.60;1.10
51595;DHT22;37677;53.254;6.594;2022-12-18T08:05:40;-4.60;1.10
51595;DHT22;37677;53.254;6.594;2022-12-18T08:08:06;-4.50;1.00
51595;DHT22;37677;53.254;6.594;2022-12-18T08:10:31;-3.70;1.00
51595;DHT22;37677;53.254;6.594;2022-12-18T08:12:57;-4.60;1.00
51595;DHT22;37677;53.254;6.594;2022-12-18T08:15:23;-4.30;1.00
51595;DHT22;37677;53.254;6.594;2022-12-18T08:17:48;-4.40;1.00
51595;DHT22;37677;53.254;6.594;2022-12-18T08:20:14;-4.30;1.00
51595;DHT22;37677;53.254;6.594;2022-12-18T08:22:41;-4.50;1.00
51595;DHT22;37677;53.254;6.594;2022-12-18T08:25:08;-4.40;1.00
51595;DHT22;37677;53.254;6.594;2022-12-18T08:27:33;-4.40;1.00
51595;DHT22;37677;53.254;6.594;2022-12-18T08:29:59;-4.30;1.00
51595;DHT22;37677;53.254;6.594;2022-12-18T08:32:25;-4.30;1.00
51595;DHT22;37677;53.254;6.594;2022-12-18T08:34:51;-4.40;1.00
51595;DHT22;37677;53.254;6.594;2022-12-18T08:37:17;-4.10;1.00
51595;DHT22;37677;53.254;6.594;2022-12-18T08:39:43;-4.20;1.00
51595;DHT22;37677;53.254;6.594;2022-12-18T08:42:08;-4.30;1.00
51595;DHT22;37677;53.254;6.594;2022-12-18T08:44:52;-4.20;1.00
51595;DHT22;37677;53.254;6.594;2022-12-18T08:47:18;-3.90;1.00
51595;DHT22;37677;53.254;6.594;2022-12-18T08:49:43;-4.00;1.00
51595;DHT22;37677;53.254;6.594;2022-12-18T08:52:09;-4.10;1.00
51595;DHT22;37677;53.254;6.594;2022-12-18T08:54:35;-4.20;1.00
51595;DHT22;37677;53.254;6.594;2022-12-18T08:57:00;-4.10;1.00
51595;DHT22;37677;53.254;6.594;2022-12-18T08:59:26;-4.10;1.00
51595;DHT22;37677;53.254;6.594;2022-12-18T09:01:53;-3.80;1.00
51595;DHT22;37677;53.254;6.594;2022-12-18T09:04:20;-3.80;1.00
51595;DHT22;37677;53.254;6.594;2022-12-18T09:06:46;-3.90;1.00
51595;DHT22;37677;53.254;6.594;2022-12-18T09:09:12;-3.70;1.00
51595;DHT22;37677;53.254;6.594;2022-12-18T09:11:37;-3.60;1.00
51595;DHT22;37677;53.254;6.594;2022-12-18T09:14:03;-3.70;1.00
51595;DHT22;37677;53.254;6.594;2022-12-18T09:16:29;-3.70;1.00
51595;DHT22;37677;53.254;6.594;2022-12-18T09:18:55;-3.70;1.00
51595;DHT22;37677;53.254;6.594;2022-12-18T09:21:26;-3.40;1.00
51595;DHT22;37677;53.254;6.594;2022-12-18T09:23:54;-3.00;1.00
51595;DHT22;37677;53.254;6.594;2022-12-18T09:26:20;-3.10;1.00
51595;DHT22;37677;53.254;6.594;2022-12-18T09:28:46;-3.10;1.00
51595;DHT22;37677;53.254;6.594;2022-12-18T09:31:12;-2.70;1.00
51595;DHT22;37677;53.254;6.594;2022-12-18T09:33:38;-2.90;1.00
51595;DHT22;37677;53.254;6.594;2022-12-18T09:36:06;-2.70;1.00
51595;DHT22;37677;53.254;6.594;2022-12-18T09:38:33;-2.70;1.00
51595;DHT22;37677;53.254;6.594;2022-12-18T09:43:52;-2.60;1.00
51595;DHT22;37677;53.254;6.594;2022-12-18T09:46:25;-2.50;1.00
51595;DHT22;37677;53.254;6.594;2022-12-18T09:48:54;-2.30;1.00
51595;DHT22;37677;53.254;6.594;2022-12-18T09:51:30;-2.30;1.00
51595;DHT22;37677;53.254;6.594;2022-12-18T09:54:18;-2.30;1.00
51595;DHT22;37677;53.254;6.594;2022-12-18T09:56:46;-2.40;1.00
51595;DHT22;37677;53.254;6.594;2022-12-18T09:59:24;-2.20;1.00
51595;DHT22;37677;53.254;6.594;2022-12-18T10:01:50;-2.50;1.00
51595;DHT22;37677;53.254;6.594;2022-12-18T10:04:16;-2.40;1.00
51595;DHT22;37677;53.254;6.594;2022-12-18T10:07:03;-2.40;1.00
51595;DHT22;37677;53.254;6.594;2022-12-18T10:09:47;-1.80;1.00
51595;DHT22;37677;53.254;6.594;2022-12-18T10:15:15;-2.10;1.00
51595;DHT22;37677;53.254;6.594;2022-12-18T10:17:46;-2.10;1.00
51595;DHT22;37677;53.254;6.594;2022-12-18T10:26:06;-1.80;1.00
51595;DHT22;37677;53.254;6.594;2022-12-18T10:28:37;-1.70;99.90
51595;DHT22;37677;53.254;6.594;2022-12-18T10:31:24;-1.50;99.90
51595;DHT22;37677;53.254;6.594;2022-12-18T10:33:50;-0.50;99.90
51595;DHT22;37677;53.254;6.594;2022-12-18T10:36:16;-1.40;99.90
51595;DHT22;37677;53.254;6.594;2022-12-18T10:38:42;-1.10;99.90
51595;DHT22;37677;53.254;6.594;2022-12-18T10:43:39;-1.10;99.90
51595;DHT22;37677;53.254;6.594;2022-12-18T10:48:55;-0.70;99.90
51595;DHT22;37677;53.254;6.594;2022-12-18T10:51:22;-1.00;99.90
51595;DHT22;37677;53.254;6.594;2022-12-18T10:54:01;-0.50;99.90
51595;DHT22;37677;53.254;6.594;2022-12-18T10:56:29;-1.00;99.90
51595;DHT22;37677;53.254;6.594;2022-12-18T10:59:00;-1.10;99.90
51595;DHT22;37677;53.254;6.594;2022-12-18T11:01:27;-0.30;99.90
51595;DHT22;37677;53.254;6.594;2022-12-18T11:06:21;-1.20;99.90
51595;DHT22;37677;53.254;6.594;2022-12-18T11:09:06;-1.20;99.90
51595;DHT22;37677;53.254;6.594;2022-12-18T11:11:48;-1.30;99.90
51595;DHT22;37677;53.254;6.594;2022-12-18T11:14:28;-1.10;99.90
51595;DHT22;37677;53.254;6.594;2022-12-18T11:16:55;-1.20;99.90
51595;DHT22;37677;53.254;6.594;2022-12-18T11:21:58;-1.00;99.90
51595;DHT22;37677;53.254;6.594;2022-12-18T11:24:31;0.90;99.90
51595;DHT22;37677;53.254;6.594;2022-12-18T11:27:16;-1.10;99.90
51595;DHT22;37677;53.254;6.594;2022-12-18T11:29:43;-0.90;99.90
51595;DHT22;37677;53.254;6.594;2022-12-18T11:34:44;-0.50;99.90
51595;DHT22;37677;53.254;6.594;2022-12-18T11:37:11;-1.10;99.90
51595;DHT22;37677;53.254;6.594;2022-12-18T11:40:00;-0.50;99.90
51595;DHT22;37677;53.254;6.594;2022-12-18T11:50:17;0.30;99.90
51595;DHT22;37677;53.254;6.594;2022-12-18T11:52:44;-0.90;99.90
51595;DHT22;37677;53.254;6.594;2022-12-18T11:55:54;-0.90;99.90
51595;DHT22;37677;53.254;6.594;2022-12-18T12:01:50;-0.90;99.90
51595;DHT22;37677;53.254;6.594;2022-12-18T12:07:21;-0.80;98.80
51595;DHT22;37677;53.254;6.594;2022-12-18T12:13:45;-0.70;99.90
51595;DHT22;37677;53.254;6.594;2022-12-18T12:16:06;-0.10;86.90
51595;DHT22;37677;53.254;6.594;2022-12-18T12:18:46;-0.80;53.50
51595;DHT22;37677;53.254;6.594;2022-12-18T12:21:48;-0.60;99.90
51595;DHT22;37677;53.254;6.594;2022-12-18T12:24:25;-0.60;72.50
51595;DHT22;37677;53.254;6.594;2022-12-18T12:27:20;-0.70;48.40
51595;DHT22;37677;53.254;6.594;2022-12-18T12:38:15;-0.50;99.90
51595;DHT22;37677;53.254;6.594;2022-12-18T12:40:47;-0.50;99.90
51595;DHT22;37677;53.254;6.594;2022-12-18T12:46:10;-0.50;99.90
51595;DHT22;37677;53.254;6.594;2022-12-18T12:48:51;-0.60;71.60
51595;DHT22;37677;53.254;6.594;2022-12-18T12:51:31;-0.60;99.90
51595;DHT22;37677;53.254;6.594;2022-12-18T12:53:58;-0.50;99.90
51595;DHT22;37677;53.254;6.594;2022-12-18T12:56:29;1.70;99.90
51595;DHT22;37677;53.254;6.594;2022-12-18T12:59:22;0.70;99.90
51595;DHT22;37677;53.254;6.594;2022-12-18T13:05:06;-0.60;53.50
51595;DHT22;37677;53.254;6.594;2022-12-18T13:08:01;-0.10;99.90
51595;DHT22;37677;53.254;6.594;2022-12-18T13:13:10;-0.50;99.90
51595;DHT22;37677;53.254;6.594;2022-12-18T13:15:48;-0.50;99.90
51595;DHT22;37677;53.254;6.594;2022-12-18T13:18:16;-0.20;99.90
51595;DHT22;37677;53.254;6.594;2022-12-18T13:20:45;-0.30;99.90
51595;DHT22;37677;53.254;6.594;2022-12-18T13:25:51;-0.10;99.90
51595;DHT22;37677;53.254;6.594;2022-12-18T13:28:21;-0.20;99.90
51595;DHT22;37677;53.254;6.594;2022-12-18T13:30:53;-0.20;77.40
51595;DHT22;37677;53.254;6.594;2022-12-18T13:38:44;-0.20;73.90
51595;DHT22;37677;53.254;6.594;2022-12-18T13:43:55;-0.10;1.00
51595;DHT22;37677;53.254;6.594;2022-12-18T13:46:29;-0.20;1.00
51595;DHT22;37677;53.254;6.594;2022-12-18T13:49:05;0.00;1.00
51595;DHT22;37677;53.254;6.594;2022-12-18T13:51:33;0.10;1.00
51595;DHT22;37677;53.254;6.594;2022-12-18T13:54:02;0.50;99.90
51595;DHT22;37677;53.254;6.594;2022-12-18T13:56:32;-0.20;99.90
51595;DHT22;37677;53.254;6.594;2022-12-18T14:01:34;-0.10;99.90
51595;DHT22;37677;53.254;6.594;2022-12-18T14:04:10;0.10;99.90
51595;DHT22;37677;53.254;6.594;2022-12-18T14:06:37;-0.10;1.00
51595;DHT22;37677;53.254;6.594;2022-12-18T14:09:03;0.00;25.00
51595;DHT22;37677;53.254;6.594;2022-12-18T14:11:29;0.00;79.70
51595;DHT22;37677;53.254;6.594;2022-12-18T14:13:56;0.10;99.90
51595;DHT22;37677;53.254;6.594;2022-12-18T14:16:22;0.20;95.10
51595;DHT22;37677;53.254;6.594;2022-12-18T14:18:52;0.30;1.00
51595;DHT22;37677;53.254;6.594;2022-12-18T14:21:23;0.10;99.90
51595;DHT22;37677;53.254;6.594;2022-12-18T14:23:49;0.20;99.90
51595;DHT22;37677;53.254;6.594;2022-12-18T14:26:30;0.10;99.90
51595;DHT22;37677;53.254;6.594;2022-12-18T14:28:57;0.00;70.30
51595;DHT22;37677;53.254;6.594;2022-12-18T14:31:25;0.10;99.90
51595;DHT22;37677;53.254;6.594;2022-12-18T14:33:52;0.10;99.90
51595;DHT22;37677;53.254;6.594;2022-12-18T14:36:28;0.20;99.90
51595;DHT22;37677;53.254;6.594;2022-12-18T14:38:58;0.30;99.90
51595;DHT22;37677;53.254;6.594;2022-12-18T14:41:25;0.10;99.90
51595;DHT22;37677;53.254;6.594;2022-12-18T14:43:53;0.00;1.00
51595;DHT22;37677;53.254;6.594;2022-12-18T14:46:35;-0.20;1.00
51595;DHT22;37677;53.254;6.594;2022-12-18T14:49:18;-0.20;99.90
51595;DHT22;37677;53.254;6.594;2022-12-18T14:51:49;-0.30;99.90
51595;DHT22;37677;53.254;6.594;2022-12-18T14:54:18;-0.10;1.00
51595;DHT22;37677;53.254;6.594;2022-12-18T14:56:46;-0.20;1.00
51595;DHT22;37677;53.254;6.594;2022-12-18T14:59:15;-0.40;1.00
51595;DHT22;37677;53.254;6.594;2022-12-18T15:04:35;-0.30;1.00
51595;DHT22;37677;53.254;6.594;2022-12-18T15:07:09;-0.30;1.00
51595;DHT22;37677;53.254;6.594;2022-12-18T15:09:37;-0.20;1.00
51595;DHT22;37677;53.254;6.594;2022-12-18T15:12:22;0.50;1.00
51595;DHT22;37677;53.254;6.594;2022-12-18T15:14:48;-0.50;1.00
51595;DHT22;37677;53.254;6.594;2022-12-18T15:17:19;-0.30;1.00
51595;DHT22;37677;53.254;6.594;2022-12-18T15:19:46;-0.40;1.00
51595;DHT22;37677;53.254;6.594;2022-12-18T15:22:26;-0.50;1.00
51595;DHT22;37677;53.254;6.594;2022-12-18T15:24:56;-0.50;1.00
51595;DHT22;37677;53.254;6.594;2022-12-18T15:27:34;0.60;1.00
51595;DHT22;37677;53.254;6.594;2022-12-18T15:32:36;-0.40;55.30
51595;DHT22;37677;53.254;6.594;2022-12-18T15:37:42;-0.60;99.90
51595;DHT22;37677;53.254;6.594;2022-12-18T15:40:22;-0.70;99.90
51595;DHT22;37677;53.254;6.594;2022-12-18T15:42:49;-0.70;99.90
51595;DHT22;37677;53.254;6.594;2022-12-18T15:45:35;-0.90;99.90
51595;DHT22;37677;53.254;6.594;2022-12-18T15:48:34;-0.80;99.90
51595;DHT22;37677;53.254;6.594;2022-12-18T15:51:00;-0.60;99.90
51595;DHT22;37677;53.254;6.594;2022-12-18T15:53:32;-0.70;99.90
51595;DHT22;37677;53.254;6.594;2022-12-18T15:55:59;-0.80;99.90
51595;DHT22;37677;53.254;6.594;2022-12-18T15:58:43;-0.10;99.90
51595;DHT22;37677;53.254;6.594;2022-12-18T16:01:09;-0.40;99.90
51595;DHT22;37677;53.254;6.594;2022-12-18T16:03:36;-0.80;99.90
51595;DHT22;37677;53.254;6.594;2022-12-18T16:06:01;-0.30;99.90
51595;DHT22;37677;53.254;6.594;2022-12-18T16:08:29;-1.00;99.90
51595;DHT22;37677;53.254;6.594;2022-12-18T16:10:56;-0.70;99.90
51595;DHT22;37677;53.254;6.594;2022-12-18T16:13:22;-1.10;99.90
51595;DHT22;37677;53.254;6.594;2022-12-18T16:15:48;-0.90;99.90
51595;DHT22;37677;53.254;6.594;2022-12-18T16:18:14;-0.60;99.90
51595;DHT22;37677;53.254;6.594;2022-12-18T16:20:40;-0.90;99.90
51595;DHT22;37677;53.254;6.594;2022-12-18T16:23:06;-0.70;99.90
51595;DHT22;37677;53.254;6.594;2022-12-18T16:25:32;-0.80;99.90
51595;DHT22;37677;53.254;6.594;2022-12-18T16:27:58;-0.80;99.90
51595;DHT22;37677;53.254;6.594;2022-12-18T16:30:26;-0.90;99.90
51595;DHT22;37677;53.254;6.594;2022-12-18T16:32:54;-0.80;99.90
51595;DHT22;37677;53.254;6.594;2022-12-18T16:35:20;-0.80;99.90
51595;DHT22;37677;53.254;6.594;2022-12-18T16:37:45;-1.00;99.90
51595;DHT22;37677;53.254;6.594;2022-12-18T16:40:14;-0.70;99.90
51595;DHT22;37677;53.254;6.594;2022-12-18T16:42:42;-0.80;99.90
51595;DHT22;37677;53.254;6.594;2022-12-18T16:45:10;-0.70;99.90
51595;DHT22;37677;53.254;6.594;2022-12-18T16:47:37;-0.60;99.90
51595;DHT22;37677;53.254;6.594;2022-12-18T16:50:03;-0.60;99.90
51595;DHT22;37677;53.254;6.594;2022-12-18T16:52:29;-0.60;99.90
51595;DHT22;37677;53.254;6.594;2022-12-18T16:54:55;-0.60;99.90
51595;DHT22;37677;53.254;6.594;2022-12-18T16:57:21;-0.60;99.90
51595;DHT22;37677;53.254;6.594;2022-12-18T16:59:47;-0.50;99.90
51595;DHT22;37677;53.254;6.594;2022-12-18T17:02:15;-0.50;89.30
51595;DHT22;37677;53.254;6.594;2022-12-18T17:04:42;0.20;17.70
51595;DHT22;37677;53.254;6.594;2022-12-18T17:07:08;-0.50;21.40
51595;DHT22;37677;53.254;6.594;2022-12-18T17:09:34;-0.50;1.00
51595;DHT22;37677;53.254;6.594;2022-12-18T17:12:00;0.40;1.00
51595;DHT22;37677;53.254;6.594;2022-12-18T17:14:25;-0.30;1.00
51595;DHT22;37677;53.254;6.594;2022-12-18T17:16:52;-0.50;1.00
51595;DHT22;37677;53.254;6.594;2022-12-18T17:19:19;-0.40;1.00
51595;DHT22;37677;53.254;6.594;2022-12-18T17:21:47;-0.40;1.00
51595;DHT22;37677;53.254;6.594;2022-12-18T17:24:13;-0.30;1.00
51595;DHT22;37677;53.254;6.594;2022-12-18T17:26:39;-0.40;1.00
51595;DHT22;37677;53.254;6.594;2022-12-18T17:29:05;-0.10;1.00
51595;DHT22;37677;53.254;6.594;2022-12-18T17:31:31;-0.40;8.50
51595;DHT22;37677;53.254;6.594;2022-12-18T17:33:57;-0.30;1.00
51595;DHT22;37677;53.254;6.594;2022-12-18T17:36:23;-0.40;1.00
51595;DHT22;37677;53.254;6.594;2022-12-18T17:38:54;-0.40;1.50
51595;DHT22;37677;53.254;6.594;2022-12-18T17:41:21;0.80;5.20
51595;DHT22;37677;53.254;6.594;2022-12-18T17:43:54;-0.20;4.80
51595;DHT22;37677;53.254;6.594;2022-12-18T17:46:20;-0.50;1.00
51595;DHT22;37677;53.254;6.594;2022-12-18T17:48:46;-0.40;15.40
51595;DHT22;37677;53.254;6.594;2022-12-18T17:51:13;-0.30;51.20
51595;DHT22;37677;53.254;6.594;2022-12-18T17:53:40;-0.30;46.70